sensor_id;sensor_type;location;lat;lon;timestamp;pressure;altitude;pressure_sealevel;temperature;humidity
54146;BME280;40052;49.422;7.738;2022-08-04T00:00:20;72906.44;;;-145.25;44.01
54146;BME280;40052;49.422;7.738;2022-08-04T00:05:49;72936.50;;;-145.25;44.23
54146;BME280;40052;49.422;7.738;2022-08-04T00:11:01;72938.50;;;-145.25;44.59
54146;BME280;40052;49.422;7.738;2022-08-04T00:13:36;72980.56;;;-145.25;45.31
54146;BME280;40052;49.422;7.738;2022-08-04T00:16:06;72980.56;;;-145.25;45.50
54146;BME280;40052;49.422;7.738;2022-08-04T00:18:48;72986.56;;;-145.25;45.67
54146;BME280;40052;49.422;7.738;2022-08-04T00:21:15;72982.56;;;-145.25;45.77
54146;BME280;40052;49.422;7.738;2022-08-04T00:23:45;72986.56;;;-145.25;45.80
54146;BME280;40052;49.422;7.738;2022-08-04T00:26:15;72982.56;;;-145.25;45.77
54146;BME280;40052;49.422;7.738;2022-08-04T00:28:43;72984.56;;;-145.25;45.58
54146;BME280;40052;49.422;7.738;2022-08-04T00:31:13;72990.56;;;-145.25;46.07
54146;BME280;40052;49.422;7.738;2022-08-04T00:33:43;73010.59;;;-145.25;46.21
54146;BME280;40052;49.422;7.738;2022-08-04T00:36:12;73016.63;;;-145.25;46.23
54146;BME280;40052;49.422;7.738;2022-08-04T00:38:41;73004.59;;;-145.25;46.08
54146;BME280;40052;49.422;7.738;2022-08-04T00:44:36;73018.63;;;-145.25;46.57
54146;BME280;40052;49.422;7.738;2022-08-04T00:47:34;73052.66;;;-145.25;47.18
54146;BME280;40052;49.422;7.738;2022-08-04T01:01:04;73078.72;;;-145.25;47.48
54146;BME280;40052;49.422;7.738;2022-08-04T01:03:55;73092.72;;;-145.25;47.72
54146;BME280;40052;49.422;7.738;2022-08-04T01:09:40;73046.66;;;-145.25;46.90
54146;BME280;40052;49.422;7.738;2022-08-04T01:20:20;73052.66;;;-145.25;47.15
54146;BME280;40052;49.422;7.738;2022-08-04T01:29:20;73090.72;;;-145.25;47.96
54146;BME280;40052;49.422;7.738;2022-08-04T01:34:21;73046.66;;;-145.25;47.13
54146;BME280;40052;49.422;7.738;2022-08-04T01:36:57;73032.63;;;-145.25;46.90
54146;BME280;40052;49.422;7.738;2022-08-04T01:39:32;73018.63;;;-145.25;46.64
54146;BME280;40052;49.422;7.738;2022-08-04T01:42:08;73024.63;;;-145.25;46.58
54146;BME280;40052;49.422;7.738;2022-08-04T01:44:36;73024.63;;;-145.25;46.74
54146;BME280;40052;49.422;7.738;2022-08-04T01:47:02;73022.63;;;-145.25;46.55
54146;BME280;40052;49.422;7.738;2022-08-04T01:49:30;73028.63;;;-145.25;46.94
54146;BME280;40052;49.422;7.738;2022-08-04T01:51:57;73054.66;;;-145.25;47.35
54146;BME280;40052;49.422;7.738;2022-08-04T01:54:25;73054.66;;;-145.25;47.53
54146;BME280;40052;49.422;7.738;2022-08-04T01:56:53;73076.72;;;-145.25;47.86
54146;BME280;40052;49.422;7.738;2022-08-04T01:59:20;73068.69;;;-145.25;47.70
54146;BME280;40052;49.422;7.738;2022-08-04T02:01:48;73058.69;;;-145.25;47.56
54146;BME280;40052;49.422;7.738;2022-08-04T02:04:18;73040.66;;;-145.25;47.29
54146;BME280;40052;49.422;7.738;2022-08-04T02:09:38;73028.63;;;-145.25;47.41
54146;BME280;40052;49.422;7.738;2022-08-04T02:12:17;73028.63;;;-145.25;47.26
54146;BME280;40052;49.422;7.738;2022-08-04T02:14:50;73036.66;;;-145.25;47.48
54146;BME280;40052;49.422;7.738;2022-08-04T02:18:02;73064.69;;;-145.25;48.02
54146;BME280;40052;49.422;7.738;2022-08-04T02:20:38;73112.75;;;-145.25;49.10
54146;BME280;40052;49.422;7.738;2022-08-04T02:23:09;73132.78;;;-145.25;49.28
54146;BME280;40052;49.422;7.738;2022-08-04T02:25:43;73114.78;;;-145.25;49.10
54146;BME280;40052;49.422;7.738;2022-08-04T02:36:02;73080.72;;;-145.25;48.47
54146;BME280;40052;49.422;7.738;2022-08-04T02:38:52;73110.75;;;-145.25;48.91
54146;BME280;40052;49.422;7.738;2022-08-04T02:41:19;73112.75;;;-145.25;49.07
54146;BME280;40052;49.422;7.738;2022-08-04T02:43:47;73124.78;;;-145.25;49.31
54146;BME280;40052;49.422;7.738;2022-08-04T02:46:16;73144.81;;;-145.25;49.82
54146;BME280;40052;49.422;7.738;2022-08-04T02:48:46;73152.81;;;-145.25;50.21
54146;BME280;40052;49.422;7.738;2022-08-04T02:51:14;73154.84;;;-145.25;50.12
54146;BME280;40052;49.422;7.738;2022-08-04T02:53:45;73158.84;;;-145.25;50.31
54146;BME280;40052;49.422;7.738;2022-08-04T02:56:18;73180.88;;;-145.25;50.68
54146;BME280;40052;49.422;7.738;2022-08-04T02:58:45;73172.84;;;-145.25;50.59
54146;BME280;40052;49.422;7.738;2022-08-04T03:01:15;73174.88;;;-145.25;50.57
54146;BME280;40052;49.422;7.738;2022-08-04T03:04:01;73152.81;;;-145.25;50.18
54146;BME280;40052;49.422;7.738;2022-08-04T03:12:15;73130.78;;;-145.25;49.56
54146;BME280;40052;49.422;7.738;2022-08-04T03:20:33;73162.84;;;-145.25;49.88
54146;BME280;40052;49.422;7.738;2022-08-04T03:25:40;73182.88;;;-145.25;50.61
54146;BME280;40052;49.422;7.738;2022-08-04T03:31:35;73204.91;;;-145.25;51.39
54146;BME280;40052;49.422;7.738;2022-08-04T03:37:18;73222.94;;;-145.25;51.82
54146;BME280;40052;49.422;7.738;2022-08-04T03:43:10;73269.00;;;-145.25;52.72
54146;BME280;40052;49.422;7.738;2022-08-04T03:49:31;73224.94;;;-145.25;51.90
54146;BME280;40052;49.422;7.738;2022-08-04T03:56:00;73230.94;;;-145.25;51.83
54146;BME280;40052;49.422;7.738;2022-08-04T03:58:14;73238.97;;;-145.25;51.88
54146;BME280;40052;49.422;7.738;2022-08-04T04:01:05;73281.03;;;-145.25;52.79
54146;BME280;40052;49.422;7.738;2022-08-04T04:12:13;73303.06;;;-145.25;53.78
54146;BME280;40052;49.422;7.738;2022-08-04T04:15:19;73265.00;;;-145.25;53.04
54146;BME280;40052;49.422;7.738;2022-08-04T04:34:34;73251.00;;;-145.25;52.29
54146;BME280;40052;49.422;7.738;2022-08-04T04:37:35;73251.00;;;-145.25;52.28
54146;BME280;40052;49.422;7.738;2022-08-04T04:40:21;73251.00;;;-145.25;52.34
54146;BME280;40052;49.422;7.738;2022-08-04T04:45:40;73317.09;;;-145.25;53.87
54146;BME280;40052;49.422;7.738;2022-08-04T04:53:37;73325.09;;;-145.25;53.96
54146;BME280;40052;49.422;7.738;2022-08-04T04:59:12;73333.13;;;-145.25;54.34
54146;BME280;40052;49.422;7.738;2022-08-04T05:15:41;73287.03;;;-145.25;53.38
54146;BME280;40052;49.422;7.738;2022-08-04T05:18:15;73279.03;;;-145.25;53.26
54146;BME280;40052;49.422;7.738;2022-08-04T05:20:52;73277.03;;;-145.25;53.36
54146;BME280;40052;49.422;7.738;2022-08-04T05:23:24;73265.00;;;-145.25;53.25
54146;BME280;40052;49.422;7.738;2022-08-04T05:25:57;73251.00;;;-145.25;52.77
54146;BME280;40052;49.422;7.738;2022-08-04T05:28:53;73246.97;;;-145.25;52.57
54146;BME280;40052;49.422;7.738;2022-08-04T05:31:26;73244.97;;;-145.25;52.55
54146;BME280;40052;49.422;7.738;2022-08-04T05:33:59;73230.94;;;-145.25;52.17
54146;BME280;40052;49.422;7.738;2022-08-04T05:36:37;73246.97;;;-145.25;52.38
54146;BME280;40052;49.422;7.738;2022-08-04T05:39:05;73263.00;;;-145.25;53.38
54146;BME280;40052;49.422;7.738;2022-08-04T05:41:34;73232.97;;;-145.25;52.63
54146;BME280;40052;49.422;7.738;2022-08-04T05:44:06;73210.91;;;-145.25;51.73
54146;BME280;40052;49.422;7.738;2022-08-04T05:46:35;73204.91;;;-145.25;52.33
54146;BME280;40052;49.422;7.738;2022-08-04T05:49:01;73186.88;;;-145.25;51.63
54146;BME280;40052;49.422;7.738;2022-08-04T05:51:27;73180.88;;;-145.25;51.76
54146;BME280;40052;49.422;7.738;2022-08-04T05:54:00;73194.91;;;-145.25;51.74
54146;BME280;40052;49.422;7.738;2022-08-04T05:56:29;73180.88;;;-145.25;51.54
54146;BME280;40052;49.422;7.738;2022-08-04T05:59:00;73154.84;;;-145.25;51.03
54146;BME280;40052;49.422;7.738;2022-08-04T06:01:27;73130.78;;;-145.25;50.79
54146;BME280;40052;49.422;7.738;2022-08-04T06:03:55;73122.78;;;-145.25;50.56
54146;BME280;40052;49.422;7.738;2022-08-04T06:06:21;73118.78;;;-145.25;49.32
54146;BME280;40052;49.422;7.738;2022-08-04T06:08:49;73124.78;;;-145.25;49.69
54146;BME280;40052;49.422;7.738;2022-08-04T06:11:18;73122.78;;;-145.25;49.28
54146;BME280;40052;49.422;7.738;2022-08-04T06:14:01;73114.78;;;-145.25;49.62
54146;BME280;40052;49.422;7.738;2022-08-04T06:16:40;73110.75;;;-145.25;49.58
54146;BME280;40052;49.422;7.738;2022-08-04T06:19:10;73110.75;;;-145.25;49.76
54146;BME280;40052;49.422;7.738;2022-08-04T06:21:39;73096.75;;;-145.25;49.60
54146;BME280;40052;49.422;7.738;2022-08-04T06:24:07;73080.72;;;-145.25;49.23
54146;BME280;40052;49.422;7.738;2022-08-04T06:26:35;73074.72;;;-145.25;49.15
54146;BME280;40052;49.422;7.738;2022-08-04T06:29:05;73068.69;;;-145.25;49.12
54146;BME280;40052;49.422;7.738;2022-08-04T06:31:39;73048.66;;;-145.25;49.24
54146;BME280;40052;49.422;7.738;2022-08-04T06:34:22;73046.66;;;-145.25;48.95
54146;BME280;40052;49.422;7.738;2022-08-04T06:36:48;73044.66;;;-145.25;48.75
54146;BME280;40052;49.422;7.738;2022-08-04T06:39:17;73026.63;;;-145.25;48.59
54146;BME280;40052;49.422;7.738;2022-08-04T06:41:45;73016.63;;;-145.25;48.68
54146;BME280;40052;49.422;7.738;2022-08-04T06:44:11;72998.59;;;-145.25;48.64
54146;BME280;40052;49.422;7.738;2022-08-04T06:46:39;72988.56;;;-145.25;48.59
54146;BME280;40052;49.422;7.738;2022-08-04T06:49:06;72980.56;;;-145.25;48.21
54146;BME280;40052;49.422;7.738;2022-08-04T06:51:37;72966.53;;;-145.25;48.26
54146;BME280;40052;49.422;7.738;2022-08-04T06:54:04;72950.50;;;-145.25;47.94
54146;BME280;40052;49.422;7.738;2022-08-04T06:56:33;72930.47;;;-145.25;47.90
54146;BME280;40052;49.422;7.738;2022-08-04T06:59:02;72920.47;;;-145.25;47.56
54146;BME280;40052;49.422;7.738;2022-08-04T07:01:31;72908.44;;;-145.25;47.42
54146;BME280;40052;49.422;7.738;2022-08-04T07:04:05;72890.41;;;-145.25;47.13
54146;BME280;40052;49.422;7.738;2022-08-04T07:06:31;72874.41;;;-145.25;46.69
54146;BME280;40052;49.422;7.738;2022-08-04T07:09:00;72868.38;;;-145.25;46.63
54146;BME280;40052;49.422;7.738;2022-08-04T07:11:28;72858.38;;;-145.25;46.47
54146;BME280;40052;49.422;7.738;2022-08-04T07:13:56;72848.34;;;-145.25;46.20
54146;BME280;40052;49.422;7.738;2022-08-04T07:16:24;72846.34;;;-145.25;46.01
54146;BME280;40052;49.422;7.738;2022-08-04T07:18:52;72826.31;;;-145.25;46.43
54146;BME280;40052;49.422;7.738;2022-08-04T07:21:24;72810.28;;;-145.25;45.90
54146;BME280;40052;49.422;7.738;2022-08-04T07:23:52;72792.28;;;-145.25;45.69
54146;BME280;40052;49.422;7.738;2022-08-04T07:26:20;72776.25;;;-145.25;45.72
54146;BME280;40052;49.422;7.738;2022-08-04T07:28:53;72772.25;;;-145.25;45.35
54146;BME280;40052;49.422;7.738;2022-08-04T07:31:22;72754.22;;;-145.25;44.91
54146;BME280;40052;49.422;7.738;2022-08-04T07:33:50;72718.16;;;-145.25;44.50
54146;BME280;40052;49.422;7.738;2022-08-04T07:36:18;72712.16;;;-145.25;44.15
54146;BME280;40052;49.422;7.738;2022-08-04T07:38:46;72706.13;;;-145.25;44.10
54146;BME280;40052;49.422;7.738;2022-08-04T07:41:19;72686.09;;;-145.25;44.10
54146;BME280;40052;49.422;7.738;2022-08-04T07:43:45;72670.09;;;-145.25;43.59
54146;BME280;40052;49.422;7.738;2022-08-04T07:46:16;72628.03;;;-145.25;43.02
54146;BME280;40052;49.422;7.738;2022-08-04T07:48:44;72624.03;;;-145.25;42.77
54146;BME280;40052;49.422;7.738;2022-08-04T07:51:10;72610.00;;;-145.25;42.66
54146;BME280;40052;49.422;7.738;2022-08-04T07:53:35;72601.97;;;-145.25;42.79
54146;BME280;40052;49.422;7.738;2022-08-04T07:56:04;72581.97;;;-145.25;42.60
54146;BME280;40052;49.422;7.738;2022-08-04T07:58:30;72537.91;;;-145.25;41.97
54146;BME280;40052;49.422;7.738;2022-08-04T08:00:57;72521.88;;;-145.25;41.10
54146;BME280;40052;49.422;7.738;2022-08-04T08:03:24;72505.84;;;-145.25;41.10
54146;BME280;40052;49.422;7.738;2022-08-04T08:05:51;72481.81;;;-145.25;40.90
54146;BME280;40052;49.422;7.738;2022-08-04T08:08:16;72463.78;;;-145.25;40.27
54146;BME280;40052;49.422;7.738;2022-08-04T08:10:46;72435.75;;;-145.25;40.05
54146;BME280;40052;49.422;7.738;2022-08-04T08:13:13;72413.72;;;-145.25;39.17
54146;BME280;40052;49.422;7.738;2022-08-04T08:15:43;72405.69;;;-145.25;39.20
54146;BME280;40052;49.422;7.738;2022-08-04T08:18:09;72389.69;;;-145.25;39.22
54146;BME280;40052;49.422;7.738;2022-08-04T08:20:37;72367.66;;;-145.25;39.00
54146;BME280;40052;49.422;7.738;2022-08-04T08:23:07;72345.63;;;-145.25;38.58
54146;BME280;40052;49.422;7.738;2022-08-04T08:25:34;72335.59;;;-145.25;38.70
54146;BME280;40052;49.422;7.738;2022-08-04T08:28:02;72325.59;;;-145.25;38.38
54146;BME280;40052;49.422;7.738;2022-08-04T08:30:28;72293.53;;;-145.25;38.35
54146;BME280;40052;49.422;7.738;2022-08-04T08:32:53;72277.53;;;-145.25;38.45
54146;BME280;40052;49.422;7.738;2022-08-04T08:35:20;72279.53;;;-145.25;38.41
54146;BME280;40052;49.422;7.738;2022-08-04T08:37:56;72257.50;;;-145.25;37.94
54146;BME280;40052;49.422;7.738;2022-08-04T08:40:38;72247.47;;;-145.25;37.80
54146;BME280;40052;49.422;7.738;2022-08-04T08:49:18;72201.41;;;-145.25;37.70
54146;BME280;40052;49.422;7.738;2022-08-04T09:01:21;72103.28;;;-145.25;36.13
54146;BME280;40052;49.422;7.738;2022-08-04T09:14:41;72027.19;;;-145.25;34.33
54146;BME280;40052;49.422;7.738;2022-08-04T09:20:14;72007.16;;;-145.25;34.37
54146;BME280;40052;49.422;7.738;2022-08-04T09:22:53;71993.13;;;-145.25;34.49
54146;BME280;40052;49.422;7.738;2022-08-04T09:25:30;71957.09;;;-145.25;34.57
54146;BME280;40052;49.422;7.738;2022-08-04T09:28:02;71955.09;;;-145.25;33.14
54146;BME280;40052;49.422;7.738;2022-08-04T09:30:46;71977.13;;;-145.25;32.97
54146;BME280;40052;49.422;7.738;2022-08-04T09:33:27;71961.09;;;-145.25;33.09
54146;BME280;40052;49.422;7.738;2022-08-04T09:38:50;71931.06;;;-145.25;32.95
54146;BME280;40052;49.422;7.738;2022-08-04T09:47:00;71850.97;;;-145.25;32.61
54146;BME280;40052;49.422;7.738;2022-08-04T09:49:39;71834.94;;;-145.25;32.24
54146;BME280;40052;49.422;7.738;2022-08-04T09:52:22;71852.97;;;-145.25;31.03
54146;BME280;40052;49.422;7.738;2022-08-04T09:55:19;71840.94;;;-145.25;30.67
54146;BME280;40052;49.422;7.738;2022-08-04T09:58:04;71838.94;;;-145.25;30.55
54146;BME280;40052;49.422;7.738;2022-08-04T10:00:43;71856.97;;;-145.25;30.81
54146;BME280;40052;49.422;7.738;2022-08-04T10:03:13;71844.94;;;-145.25;30.64
54146;BME280;40052;49.422;7.738;2022-08-04T10:06:05;71814.91;;;-145.25;30.34
54146;BME280;40052;49.422;7.738;2022-08-04T10:19:34;71714.78;;;-145.25;29.16
54146;BME280;40052;49.422;7.738;2022-08-04T10:24:45;71674.75;;;-145.25;28.65
54146;BME280;40052;49.422;7.738;2022-08-04T10:27:26;71678.75;;;-145.25;28.30
54146;BME280;40052;49.422;7.738;2022-08-04T10:29:57;71668.72;;;-145.25;28.08
54146;BME280;40052;49.422;7.738;2022-08-04T10:32:41;71664.72;;;-145.25;27.31
54146;BME280;40052;49.422;7.738;2022-08-04T10:35:10;71676.75;;;-145.25;27.60
54146;BME280;40052;49.422;7.738;2022-08-04T10:40:42;71668.72;;;-145.25;27.06
54146;BME280;40052;49.422;7.738;2022-08-04T10:46:00;71650.72;;;-145.25;26.97
54146;BME280;40052;49.422;7.738;2022-08-04T10:48:43;71668.72;;;-145.25;27.06
54146;BME280;40052;49.422;7.738;2022-08-04T10:54:07;71658.72;;;-145.25;27.37
54146;BME280;40052;49.422;7.738;2022-08-04T10:56:39;71628.69;;;-145.25;27.35
54146;BME280;40052;49.422;7.738;2022-08-04T10:59:44;71640.69;;;-145.25;26.64
54146;BME280;40052;49.422;7.738;2022-08-04T11:08:20;71608.66;;;-145.25;26.67
54146;BME280;40052;49.422;7.738;2022-08-04T11:10:59;71678.75;;;-145.25;26.67
54146;BME280;40052;49.422;7.738;2022-08-04T11:13:32;71704.78;;;-145.25;27.29
54146;BME280;40052;49.422;7.738;2022-08-04T11:16:02;71674.75;;;-145.25;27.15
54146;BME280;40052;49.422;7.738;2022-08-04T11:21:26;71578.63;;;-145.25;26.95
54146;BME280;40052;49.422;7.738;2022-08-04T11:24:02;71566.59;;;-145.25;26.59
54146;BME280;40052;49.422;7.738;2022-08-04T11:26:50;71566.59;;;-145.25;26.82
54146;BME280;40052;49.422;7.738;2022-08-04T11:32:09;71574.63;;;-145.25;25.95
54146;BME280;40052;49.422;7.738;2022-08-04T11:34:43;71526.56;;;-145.25;26.12
54146;BME280;40052;49.422;7.738;2022-08-04T11:37:26;71548.59;;;-145.25;26.07
54146;BME280;40052;49.422;7.738;2022-08-04T11:40:08;71566.59;;;-145.25;25.65
54146;BME280;40052;49.422;7.738;2022-08-04T11:42:38;71538.56;;;-145.25;25.74
54146;BME280;40052;49.422;7.738;2022-08-04T11:45:30;71506.53;;;-145.25;25.45
54146;BME280;40052;49.422;7.738;2022-08-04T11:48:00;71470.50;;;-145.25;25.47
54146;BME280;40052;49.422;7.738;2022-08-04T11:52:59;71446.47;;;-145.25;24.72
54146;BME280;40052;49.422;7.738;2022-08-04T11:55:30;71454.47;;;-145.25;24.97
54146;BME280;40052;49.422;7.738;2022-08-04T11:58:01;71416.44;;;-145.25;24.90
54146;BME280;40052;49.422;7.738;2022-08-04T12:00:30;71422.44;;;-145.25;25.01
54146;BME280;40052;49.422;7.738;2022-08-04T12:03:07;71384.41;;;-145.25;24.62
54146;BME280;40052;49.422;7.738;2022-08-04T12:06:21;71356.34;;;-145.25;23.91
54146;BME280;40052;49.422;7.738;2022-08-04T12:11:58;71432.44;;;-145.25;24.90
54146;BME280;40052;49.422;7.738;2022-08-04T12:14:42;71458.47;;;-145.25;24.81
54146;BME280;40052;49.422;7.738;2022-08-04T12:17:15;71428.44;;;-145.25;24.31
54146;BME280;40052;49.422;7.738;2022-08-04T12:19:53;71440.47;;;-145.25;24.37
54146;BME280;40052;49.422;7.738;2022-08-04T12:22:24;71408.41;;;-145.25;24.48
54146;BME280;40052;49.422;7.738;2022-08-04T12:25:05;71376.38;;;-145.25;24.31
54146;BME280;40052;49.422;7.738;2022-08-04T12:27:36;71356.34;;;-145.25;23.61
54146;BME280;40052;49.422;7.738;2022-08-04T12:30:07;71314.31;;;-145.25;23.49
54146;BME280;40052;49.422;7.738;2022-08-04T12:32:41;71352.34;;;-145.25;23.84
54146;BME280;40052;49.422;7.738;2022-08-04T12:35:34;71334.34;;;-145.25;23.96
54146;BME280;40052;49.422;7.738;2022-08-04T12:38:04;71330.31;;;-145.25;24.34
54146;BME280;40052;49.422;7.738;2022-08-04T12:40:38;71296.28;;;-145.25;24.09
54146;BME280;40052;49.422;7.738;2022-08-04T12:43:10;71320.31;;;-145.25;23.70
54146;BME280;40052;49.422;7.738;2022-08-04T12:46:01;71300.28;;;-145.25;24.03
54146;BME280;40052;49.422;7.738;2022-08-04T12:48:28;71266.25;;;-145.25;23.64
54146;BME280;40052;49.422;7.738;2022-08-04T12:50:57;71280.28;;;-145.25;24.12
54146;BME280;40052;49.422;7.738;2022-08-04T12:53:28;71234.22;;;-145.25;24.09
54146;BME280;40052;49.422;7.738;2022-08-04T12:55:57;71272.25;;;-145.25;23.89
54146;BME280;40052;49.422;7.738;2022-08-04T12:58:26;71308.31;;;-145.25;24.23
54146;BME280;40052;49.422;7.738;2022-08-04T13:01:01;71304.31;;;-145.25;23.66
54146;BME280;40052;49.422;7.738;2022-08-04T13:03:33;71344.34;;;-145.25;23.95
54146;BME280;40052;49.422;7.738;2022-08-04T13:06:03;71352.34;;;-145.25;24.51
54146;BME280;40052;49.422;7.738;2022-08-04T13:08:35;71376.38;;;-145.25;24.38
54146;BME280;40052;49.422;7.738;2022-08-04T13:11:05;71354.34;;;-145.25;24.29
54146;BME280;40052;49.422;7.738;2022-08-04T13:13:37;71338.34;;;-145.25;24.45
54146;BME280;40052;49.422;7.738;2022-08-04T13:16:05;71314.31;;;-145.25;24.21
54146;BME280;40052;49.422;7.738;2022-08-04T13:18:36;71322.31;;;-145.25;24.47
54146;BME280;40052;49.422;7.738;2022-08-04T13:21:15;71278.28;;;-145.25;23.99
54146;BME280;40052;49.422;7.738;2022-08-04T13:23:44;71236.22;;;-145.25;24.01
54146;BME280;40052;49.422;7.738;2022-08-04T13:26:13;71228.22;;;-145.25;23.67
54146;BME280;40052;49.422;7.738;2022-08-04T13:28:46;71250.25;;;-145.25;23.57
54146;BME280;40052;49.422;7.738;2022-08-04T13:31:18;71232.22;;;-145.25;23.51
54146;BME280;40052;49.422;7.738;2022-08-04T13:33:49;71194.19;;;-145.25;23.51
54146;BME280;40052;49.422;7.738;2022-08-04T13:36:23;71182.16;;;-145.25;23.14
54146;BME280;40052;49.422;7.738;2022-08-04T13:38:53;71150.13;;;-145.25;22.77
54146;BME280;40052;49.422;7.738;2022-08-04T13:41:23;71132.09;;;-145.25;22.90
54146;BME280;40052;49.422;7.738;2022-08-04T13:43:49;71160.13;;;-145.25;22.46
54146;BME280;40052;49.422;7.738;2022-08-04T13:46:20;71124.09;;;-145.25;22.55
54146;BME280;40052;49.422;7.738;2022-08-04T13:48:50;71118.09;;;-145.25;22.59
54146;BME280;40052;49.422;7.738;2022-08-04T13:51:16;71122.09;;;-145.25;22.60
54146;BME280;40052;49.422;7.738;2022-08-04T13:53:42;71128.09;;;-145.25;22.57
54146;BME280;40052;49.422;7.738;2022-08-04T13:56:08;71168.16;;;-145.25;22.87
54146;BME280;40052;49.422;7.738;2022-08-04T13:58:40;71144.13;;;-145.25;23.22
54146;BME280;40052;49.422;7.738;2022-08-04T14:01:14;71152.13;;;-145.25;22.76
54146;BME280;40052;49.422;7.738;2022-08-04T14:03:51;71140.13;;;-145.25;23.01
54146;BME280;40052;49.422;7.738;2022-08-04T14:06:25;71136.13;;;-145.25;22.38
54146;BME280;40052;49.422;7.738;2022-08-04T14:09:09;71130.09;;;-145.25;22.47
54146;BME280;40052;49.422;7.738;2022-08-04T14:11:48;71110.09;;;-145.25;22.86
54146;BME280;40052;49.422;7.738;2022-08-04T14:14:27;71110.09;;;-145.25;22.97
54146;BME280;40052;49.422;7.738;2022-08-04T14:19:27;71106.06;;;-145.25;22.29
54146;BME280;40052;49.422;7.738;2022-08-04T14:21:53;71104.06;;;-145.25;22.20
54146;BME280;40052;49.422;7.738;2022-08-04T14:24:26;71118.09;;;-145.25;22.70
54146;BME280;40052;49.422;7.738;2022-08-04T14:26:52;71112.09;;;-145.25;22.60
54146;BME280;40052;49.422;7.738;2022-08-04T14:29:17;71116.09;;;-145.25;22.48
54146;BME280;40052;49.422;7.738;2022-08-04T14:31:46;71122.09;;;-145.25;22.50
54146;BME280;40052;49.422;7.738;2022-08-04T14:34:23;71144.13;;;-145.25;22.31
54146;BME280;40052;49.422;7.738;2022-08-04T14:36:51;71104.06;;;-145.25;22.39
54146;BME280;40052;49.422;7.738;2022-08-04T14:39:16;71066.03;;;-145.25;22.17
54146;BME280;40052;49.422;7.738;2022-08-04T14:41:46;71062.03;;;-145.25;21.66
54146;BME280;40052;49.422;7.738;2022-08-04T14:44:11;71052.03;;;-145.25;21.91
54146;BME280;40052;49.422;7.738;2022-08-04T14:46:50;71034.00;;;-145.25;22.09
54146;BME280;40052;49.422;7.738;2022-08-04T14:49:15;71090.06;;;-145.25;22.04
54146;BME280;40052;49.422;7.738;2022-08-04T14:51:42;71060.03;;;-145.25;22.31
54146;BME280;40052;49.422;7.738;2022-08-04T14:54:09;71110.09;;;-145.25;22.49
54146;BME280;40052;49.422;7.738;2022-08-04T14:56:36;71118.09;;;-145.25;22.10
54146;BME280;40052;49.422;7.738;2022-08-04T14:59:09;71118.09;;;-145.25;22.50
54146;BME280;40052;49.422;7.738;2022-08-04T15:01:35;71100.06;;;-145.25;22.47
54146;BME280;40052;49.422;7.738;2022-08-04T15:04:01;71074.03;;;-145.25;22.41
54146;BME280;40052;49.422;7.738;2022-08-04T15:06:28;71054.03;;;-145.25;22.39
54146;BME280;40052;49.422;7.738;2022-08-04T15:09:03;71076.03;;;-145.25;22.82
54146;BME280;40052;49.422;7.738;2022-08-04T15:11:31;71112.09;;;-145.25;23.13
54146;BME280;40052;49.422;7.738;2022-08-04T15:13:57;71098.06;;;-145.25;22.81
54146;BME280;40052;49.422;7.738;2022-08-04T15:16:24;71080.06;;;-145.25;22.94
54146;BME280;40052;49.422;7.738;2022-08-04T15:18:52;71104.06;;;-145.25;22.70
54146;BME280;40052;49.422;7.738;2022-08-04T15:21:17;71058.03;;;-145.25;22.58
54146;BME280;40052;49.422;7.738;2022-08-04T15:23:43;71060.03;;;-145.25;23.08
54146;BME280;40052;49.422;7.738;2022-08-04T15:26:15;71096.06;;;-145.25;22.96
54146;BME280;40052;49.422;7.738;2022-08-04T15:28:44;71056.03;;;-145.25;22.92
54146;BME280;40052;49.422;7.738;2022-08-04T15:31:10;71074.03;;;-145.25;22.68
54146;BME280;40052;49.422;7.738;2022-08-04T15:33:38;71132.09;;;-145.25;23.09
54146;BME280;40052;49.422;7.738;2022-08-04T15:38:40;71126.09;;;-145.25;22.97
54146;BME280;40052;49.422;7.738;2022-08-04T15:41:08;71144.13;;;-145.25;23.51
54146;BME280;40052;49.422;7.738;2022-08-04T15:46:20;71126.09;;;-145.25;23.13
54146;BME280;40052;49.422;7.738;2022-08-04T15:48:57;71090.06;;;-145.25;23.11
54146;BME280;40052;49.422;7.738;2022-08-04T15:51:44;71078.06;;;-145.25;22.86
54146;BME280;40052;49.422;7.738;2022-08-04T15:56:47;71104.06;;;-145.25;23.26
54146;BME280;40052;49.422;7.738;2022-08-04T15:59:13;71106.06;;;-145.25;23.40
54146;BME280;40052;49.422;7.738;2022-08-04T16:01:42;71178.16;;;-145.25;23.73
54146;BME280;40052;49.422;7.738;2022-08-04T16:04:28;71196.19;;;-145.25;23.37
54146;BME280;40052;49.422;7.738;2022-08-04T16:07:03;71172.16;;;-145.25;23.47
54146;BME280;40052;49.422;7.738;2022-08-04T16:09:29;71182.16;;;-145.25;23.57
54146;BME280;40052;49.422;7.738;2022-08-04T16:11:54;71188.16;;;-145.25;23.40
54146;BME280;40052;49.422;7.738;2022-08-04T16:14:29;71220.22;;;-145.25;23.87
54146;BME280;40052;49.422;7.738;2022-08-04T16:16:55;71266.25;;;-145.25;23.88
54146;BME280;40052;49.422;7.738;2022-08-04T16:21:49;71280.28;;;-145.25;24.01
54146;BME280;40052;49.422;7.738;2022-08-04T16:34:33;71350.34;;;-145.25;24.65
54146;BME280;40052;49.422;7.738;2022-08-04T16:36:59;71348.34;;;-145.25;24.73
54146;BME280;40052;49.422;7.738;2022-08-04T16:39:27;71344.34;;;-145.25;25.04
54146;BME280;40052;49.422;7.738;2022-08-04T16:41:52;71362.38;;;-145.25;25.12
54146;BME280;40052;49.422;7.738;2022-08-04T16:46:52;71400.41;;;-145.25;25.22
54146;BME280;40052;49.422;7.738;2022-08-04T16:49:17;71390.41;;;-145.25;25.26
54146;BME280;40052;49.422;7.738;2022-08-04T16:51:45;71386.41;;;-145.25;25.53
54146;BME280;40052;49.422;7.738;2022-08-04T16:54:11;71388.41;;;-145.25;25.32
54146;BME280;40052;49.422;7.738;2022-08-04T16:56:39;71384.41;;;-145.25;25.49
54146;BME280;40052;49.422;7.738;2022-08-04T16:59:08;71388.41;;;-145.25;25.40
54146;BME280;40052;49.422;7.738;2022-08-04T17:01:34;71384.41;;;-145.25;25.47